This is the latest recevied weather packets stored in our database for station/object IZ4MEH-10. If no packets are shown the sender has not sent any weather packets the latest 10 day(s).
| Time | Temp. | Humidity | Pressure | Rain* | Wind** | Luminosity | Snow |
|---|---|---|---|---|---|---|---|
| 1788013213 | 35.56° C | 26% | 1009.7 hPa | - | - | - | - |
| 1788006001 | 36.11° C | 32% | 1010.2 hPa | - | - | - | - |
| 1788002399 | 36.67° C | 33% | 1010.7 hPa | - | - | - | - |
| 1787998798 | 45.56° C | 24% | 1011.1 hPa | - | - | - | - |
| 1787996997 | 45.56° C | 24% | 1011.2 hPa | - | - | - | - |
| 1787993395 | 45° C | 25% | 1011.5 hPa | - | - | - | - |
| 1787991594 | 43.89° C | 27% | 1011.1 hPa | - | - | - | - |
| 1787948374 | 26.11° C | 69% | 1010.5 hPa | - | - | - | - |
| 1787944773 | 26.67° C | 72% | 1010.5 hPa | - | - | - | - |
| 1787942972 | 25.56° C | 73% | 1010.5 hPa | - | - | - | - |
| 1787941171 | 25.56° C | 76% | 1010.8 hPa | - | - | - | - |
| 1787939370 | 27.22° C | 64% | 1010.2 hPa | - | - | - | - |
| 1787935768 | 32.22° C | 48% | 1010 hPa | - | - | - | - |
| 1787933968 | 32.78° C | 48% | 1009.9 hPa | - | - | - | - |
| 1787932167 | 33.89° C | 47% | 1009.4 hPa | - | - | - | - |
| 1787917760 | 35° C | 52% | 1011.8 hPa | - | - | - | - |
| 1787915959 | 35.56° C | 53% | 1012.4 hPa | - | - | - | - |
| 1787914158 | 34.44° C | 56% | 1012.8 hPa | - | - | - | - |
| 1787894349 | 26.67° C | 83% | 1014.5 hPa | - | - | - | - |
| 1787890747 | 26.67° C | 81% | 1013.5 hPa | - | - | - | - |
| 1787874540 | 28.33° C | 74% | 1013.5 hPa | - | - | - | - |
| 1787872740 | 28.89° C | 71% | 1014.5 hPa | - | - | - | - |
| 1787858332 | 31.11° C | 61% | 1013.8 hPa | - | - | - | - |
| 1787854731 | 32.22° C | 57% | 1013.3 hPa | - | - | - | - |
| 1787852930 | 33.33° C | 50% | 1013 hPa | - | - | - | - |
* Rain since midnight (hover to see other rain measurements)
** Current wind speed in m/s (hover to see current wind gust speed)